createdAt,value
2022-09-30T00:03:54.171Z,3.40
2022-09-30T00:08:57.819Z,3.30
2022-09-30T00:14:01.581Z,3.30
2022-09-30T00:19:06.204Z,3.20
2022-09-30T00:24:09.140Z,3.30
2022-09-30T00:29:12.189Z,3.30
2022-09-30T00:34:14.692Z,3.30
2022-09-30T00:39:25.957Z,3.40
2022-09-30T00:44:57.237Z,3.40
2022-09-30T00:50:16.911Z,3.70
2022-09-30T00:55:44.891Z,3.50
2022-09-30T01:00:48.437Z,3.20
2022-09-30T01:05:52.715Z,3.00
2022-09-30T01:10:55.287Z,2.90
2022-09-30T01:16:10.124Z,2.90
2022-09-30T01:21:35.623Z,2.80
2022-09-30T01:27:00.597Z,2.50
2022-09-30T01:32:09.762Z,2.60
2022-09-30T01:37:29.271Z,2.60
2022-09-30T01:42:41.671Z,2.60
2022-09-30T01:47:50.573Z,2.70
2022-09-30T01:53:17.587Z,2.70
2022-09-30T01:58:28.167Z,2.70
2022-09-30T02:03:46.090Z,2.80
2022-09-30T02:09:03.655Z,2.80
2022-09-30T02:14:19.772Z,2.90
2022-09-30T02:19:30.892Z,3.10
2022-09-30T02:24:38.861Z,3.40
2022-09-30T02:29:44.471Z,3.70
2022-09-30T02:34:54.044Z,3.90
2022-09-30T02:40:14.419Z,4.00
2022-09-30T02:45:21.477Z,4.10
2022-09-30T02:50:35.753Z,4.10
2022-09-30T02:55:59.787Z,4.10
2022-09-30T03:01:03.631Z,4.20
2022-09-30T03:06:06.905Z,4.30
2022-09-30T03:11:18.732Z,4.40
2022-09-30T03:16:27.239Z,4.30
2022-09-30T03:21:38.856Z,4.10
2022-09-30T03:26:56.798Z,4.00
2022-09-30T03:32:05.553Z,3.80
2022-09-30T03:37:17.286Z,3.90
2022-09-30T03:42:27.192Z,3.80
2022-09-30T03:47:33.069Z,3.80
2022-09-30T03:52:36.400Z,3.90
2022-09-30T03:57:39.373Z,3.90
2022-09-30T04:02:42.319Z,3.80
2022-09-30T04:07:46.081Z,3.70
2022-09-30T04:12:48.925Z,3.90
2022-09-30T04:17:51.469Z,4.00
2022-09-30T04:22:56.871Z,4.00
2022-09-30T04:27:59.355Z,3.80
2022-09-30T04:33:01.943Z,3.80
2022-09-30T04:38:07.237Z,6.10
2022-09-30T04:43:09.892Z,4.00
2022-09-30T04:48:13.633Z,4.10
2022-09-30T04:53:17.581Z,4.10
2022-09-30T04:58:20.142Z,4.10
2022-09-30T05:03:22.665Z,4.30
2022-09-30T05:08:25.725Z,4.40
2022-09-30T05:13:36.741Z,4.20
2022-09-30T05:18:41.225Z,4.00
2022-09-30T05:23:44.037Z,4.10
2022-09-30T05:28:46.713Z,4.40
2022-09-30T05:33:50.397Z,4.50
2022-09-30T05:38:54.608Z,4.60
2022-09-30T05:44:01.137Z,4.90
2022-09-30T05:49:03.976Z,5.30
2022-09-30T05:54:06.593Z,5.70
2022-09-30T05:59:09.102Z,6.10
2022-09-30T06:04:11.814Z,6.30
2022-09-30T06:09:14.734Z,6.50
2022-09-30T06:14:20.161Z,6.70
2022-09-30T06:19:23.087Z,6.90
2022-09-30T06:24:26.591Z,7.20
2022-09-30T06:29:29.515Z,7.30
2022-09-30T06:34:32.109Z,7.40
2022-09-30T06:39:34.516Z,7.50
2022-09-30T06:44:48.653Z,7.80
2022-09-30T06:49:58.989Z,7.90
2022-09-30T06:55:01.590Z,8.10
2022-09-30T07:00:05.979Z,8.30
2022-09-30T07:05:09.413Z,8.30
2022-09-30T07:10:11.930Z,8.60
2022-09-30T07:15:14.422Z,8.90
2022-09-30T07:20:16.916Z,9.20
2022-09-30T07:25:19.899Z,9.30
2022-09-30T07:30:26.973Z,9.40
2022-09-30T07:35:31.266Z,9.70
2022-09-30T07:40:33.747Z,9.80
2022-09-30T07:45:37.264Z,9.90
2022-09-30T07:50:45.351Z,9.90
2022-09-30T07:55:47.878Z,9.90
2022-09-30T08:00:50.875Z,9.90
2022-09-30T08:05:53.741Z,10.10
2022-09-30T08:11:00.339Z,10.30
2022-09-30T08:16:03.845Z,10.60
2022-09-30T08:21:07.329Z,10.70
2022-09-30T08:26:11.799Z,11.00
2022-09-30T08:31:18.900Z,11.00
2022-09-30T08:36:23.956Z,11.50
2022-09-30T08:41:41.728Z,11.60
2022-09-30T08:46:58.556Z,11.90
2022-09-30T08:52:03.374Z,12.10
2022-09-30T08:57:06.442Z,12.30
2022-09-30T09:02:31.778Z,12.30
2022-09-30T09:07:43.485Z,12.30
2022-09-30T09:13:19.063Z,12.40
2022-09-30T09:18:39.388Z,12.60
2022-09-30T09:23:42.740Z,13.40
2022-09-30T09:28:54.118Z,13.00
2022-09-30T09:34:08.047Z,13.10
2022-09-30T09:39:19.432Z,13.10
2022-09-30T09:44:27.746Z,13.20
2022-09-30T09:49:36.133Z,13.20
2022-09-30T09:54:47.242Z,13.20
2022-09-30T10:00:25.238Z,13.30
2022-09-30T10:05:30.630Z,13.50
2022-09-30T10:10:47.755Z,13.50
2022-09-30T10:15:53.862Z,13.50
2022-09-30T10:21:02.712Z,13.40
2022-09-30T10:26:14.546Z,13.50
2022-09-30T10:31:30.254Z,13.50
2022-09-30T10:36:35.909Z,13.60
2022-09-30T10:41:38.939Z,13.50
2022-09-30T10:46:44.789Z,13.60
2022-09-30T10:51:47.539Z,13.60
2022-09-30T10:56:53.553Z,13.70
2022-09-30T11:02:42.147Z,13.80
2022-09-30T11:07:58.888Z,13.90
2022-09-30T11:13:35.827Z,13.80
2022-09-30T11:18:50.132Z,14.00
2022-09-30T11:24:08.730Z,14.30
2022-09-30T11:29:31.526Z,14.60
2022-09-30T11:35:01.502Z,14.40
2022-09-30T11:40:35.849Z,14.00
2022-09-30T11:45:44.236Z,14.30
2022-09-30T11:51:00.713Z,14.40
2022-09-30T11:56:11.895Z,14.40
2022-09-30T12:01:24.790Z,14.40
2022-09-30T12:06:37.678Z,14.70
2022-09-30T12:11:57.731Z,14.60
2022-09-30T12:17:04.943Z,14.40
2022-09-30T12:22:18.340Z,14.40
2022-09-30T12:27:33.323Z,14.10
2022-09-30T12:32:54.975Z,14.00
2022-09-30T12:38:12.586Z,13.90
2022-09-30T12:43:30.380Z,14.00
2022-09-30T12:48:40.729Z,13.90
2022-09-30T12:53:44.700Z,14.00
2022-09-30T12:58:52.427Z,13.90
2022-09-30T13:04:00.626Z,13.90
2022-09-30T13:09:17.980Z,13.90
2022-09-30T13:14:26.579Z,13.90
2022-09-30T13:19:36.884Z,14.00
2022-09-30T13:25:00.798Z,13.90
2022-09-30T13:30:15.796Z,13.70
2022-09-30T13:35:48.800Z,13.70
2022-09-30T13:41:03.696Z,13.60
2022-09-30T13:46:20.482Z,13.50
2022-09-30T13:51:25.917Z,13.50
2022-09-30T13:56:33.612Z,13.70
2022-09-30T14:01:36.296Z,13.70
2022-09-30T14:07:01.123Z,13.50
2022-09-30T14:12:29.170Z,13.50
2022-09-30T14:18:05.604Z,13.70
2022-09-30T14:23:16.154Z,13.70
2022-09-30T14:28:29.118Z,13.70
2022-09-30T14:33:31.862Z,13.60
2022-09-30T14:38:37.379Z,13.40
2022-09-30T14:43:46.220Z,13.40
2022-09-30T14:48:50.812Z,13.30
2022-09-30T14:54:02.054Z,13.20
2022-09-30T14:59:27.191Z,13.10
2022-09-30T15:04:40.287Z,12.90
2022-09-30T15:09:47.821Z,12.80
2022-09-30T15:14:59.102Z,12.70
2022-09-30T15:20:02.171Z,12.70
2022-09-30T15:25:06.751Z,12.60
2022-09-30T15:30:15.243Z,12.60
2022-09-30T15:35:24.100Z,12.50
2022-09-30T15:40:49.600Z,12.40
2022-09-30T15:45:55.324Z,12.40
2022-09-30T15:51:01.292Z,12.10
2022-09-30T15:56:25.275Z,12.00
2022-09-30T16:01:37.067Z,12.10
2022-09-30T16:06:51.859Z,11.90
2022-09-30T16:12:15.184Z,11.80
2022-09-30T16:17:18.323Z,11.80
2022-09-30T16:22:48.404Z,11.70
2022-09-30T16:28:11.495Z,11.40
2022-09-30T16:33:15.577Z,11.30
2022-09-30T16:38:20.105Z,11.10
2022-09-30T16:43:27.054Z,10.80
2022-09-30T16:48:29.771Z,10.70
2022-09-30T16:53:34.094Z,10.70
2022-09-30T16:58:38.564Z,10.80
2022-09-30T17:03:48.124Z,10.80
2022-09-30T17:08:51.482Z,10.70
2022-09-30T17:13:54.364Z,10.70
2022-09-30T17:18:58.123Z,10.60
2022-09-30T17:24:00.889Z,10.50
2022-09-30T17:29:21.121Z,10.40
2022-09-30T17:34:28.192Z,10.40
2022-09-30T17:39:31.959Z,10.30
2022-09-30T17:44:34.691Z,10.20
2022-09-30T17:49:39.184Z,10.20
2022-09-30T17:54:43.247Z,10.20
2022-09-30T17:59:46.841Z,10.30
2022-09-30T18:04:50.864Z,10.40
2022-09-30T18:09:53.683Z,10.30
2022-09-30T18:14:59.605Z,10.30
2022-09-30T18:20:03.415Z,10.10
2022-09-30T18:25:23.191Z,10.10
2022-09-30T18:30:27.924Z,10.00
2022-09-30T18:35:33.605Z,10.00
2022-09-30T18:40:36.575Z,10.10
2022-09-30T18:45:43.498Z,10.00
2022-09-30T18:50:51.548Z,10.10
2022-09-30T18:56:16.934Z,10.10
2022-09-30T19:01:21.128Z,10.00
2022-09-30T19:06:24.015Z,9.70
2022-09-30T19:11:31.551Z,9.70
2022-09-30T19:16:39.062Z,9.80
2022-09-30T19:21:44.813Z,9.80
2022-09-30T19:26:48.704Z,9.80
2022-09-30T19:31:53.669Z,9.90
2022-09-30T19:36:58.071Z,9.80
2022-09-30T19:42:04.125Z,9.80
2022-09-30T19:47:09.714Z,9.90
2022-09-30T19:52:20.940Z,9.90
2022-09-30T19:57:25.131Z,9.80
2022-09-30T20:02:32.781Z,9.80
2022-09-30T20:07:35.606Z,9.80
2022-09-30T20:12:38.328Z,9.70
2022-09-30T20:17:41.096Z,9.70
2022-09-30T20:22:46.650Z,9.80
2022-09-30T20:27:52.669Z,9.70
2022-09-30T20:33:02.294Z,9.60
2022-09-30T20:38:05.501Z,9.60
2022-09-30T20:43:09.683Z,9.60
2022-09-30T20:48:12.497Z,9.60
2022-09-30T20:53:18.433Z,9.50
2022-09-30T20:58:20.988Z,9.50
2022-09-30T21:03:23.752Z,9.50
2022-09-30T21:08:26.741Z,9.50
2022-09-30T21:13:30.505Z,9.50
2022-09-30T21:18:33.497Z,9.40
2022-09-30T21:23:37.201Z,9.40
2022-09-30T21:28:44.445Z,9.40
2022-09-30T21:33:58.874Z,9.40
2022-09-30T21:39:04.816Z,9.40
2022-09-30T21:44:07.622Z,9.40
2022-09-30T21:49:23.147Z,9.30
2022-09-30T21:54:25.781Z,9.20
2022-09-30T21:59:28.599Z,9.20
2022-09-30T22:04:31.315Z,9.10
2022-09-30T22:09:39.151Z,8.90
2022-09-30T22:14:42.285Z,8.90
2022-09-30T22:19:44.867Z,8.70
2022-09-30T22:24:48.183Z,8.70
2022-09-30T22:29:50.729Z,8.60
2022-09-30T22:35:11.847Z,8.50
2022-09-30T22:40:14.519Z,8.40
2022-09-30T22:45:17.012Z,8.30
2022-09-30T22:50:19.935Z,8.30
2022-09-30T22:55:22.518Z,8.30
2022-09-30T23:00:25.079Z,8.20
2022-09-30T23:05:27.813Z,8.30
2022-09-30T23:10:30.241Z,8.30
2022-09-30T23:15:32.853Z,8.20
2022-09-30T23:20:35.761Z,8.20
2022-09-30T23:25:38.221Z,8.30
2022-09-30T23:30:40.852Z,8.30
2022-09-30T23:35:49.621Z,8.20
2022-09-30T23:40:52.500Z,7.90
2022-09-30T23:45:55.146Z,7.90
2022-09-30T23:50:57.663Z,7.90
2022-09-30T23:56:02.938Z,7.80
